Plentywood (PWD)
Plentywood, MT
Field Elevation: 2251
Lat: 48°47.32N  Long: 104°31.39W
CTAF/Unicom Freq: 122.8000
   
     For Weather-by-Phone, call 406-765-2149
Weather Advisories
8/28/2014 03:04 Z
Altimeter 29.93" Hg
Wind 140° @ 6 KT
Gusts --
Visibility 10 SM
Temperature 22° C (72° F)
Dewpoint 13° C (55° F)
Relative Humidity 56%
Density Altitude 3,500 feet
Condensation Altitude 6,700 feet
  Wind and Runways
Indicated Runway = 12
History
 
 
More Info
All DigiWx sites map
NOAA Forecast
 
Airport IQ 5010
(S59) Libby
(6S5) Ravalli County
 
about DigiWx
 
FAA Disclaimer: The data displayed is for advisory purposes only and is not to be used for flight planning or operations. For official data, please call 406-765-2149 to hear the current automated AWOS voice message.
  METAR PWD 280304Z AUTO 14006KT 10SM 22/13 A2993